sensor_id;sensor_type;location;lat;lon;timestamp;pressure;altitude;pressure_sealevel;temperature;humidity
15694;BME280;7947;48.834;9.132;2023-02-14T00:01:31;100042.16;;;2.26;88.38
15694;BME280;7947;48.834;9.132;2023-02-14T00:04:34;100039.13;;;2.29;87.16
15694;BME280;7947;48.834;9.132;2023-02-14T00:07:38;100033.97;;;2.35;86.00
15694;BME280;7947;48.834;9.132;2023-02-14T00:10:42;100031.22;;;2.51;85.46
15694;BME280;7947;48.834;9.132;2023-02-14T00:13:46;100029.06;;;2.55;83.01
15694;BME280;7947;48.834;9.132;2023-02-14T00:17:03;100034.94;;;2.65;83.06
15694;BME280;7947;48.834;9.132;2023-02-14T00:20:06;100040.25;;;2.65;82.24
15694;BME280;7947;48.834;9.132;2023-02-14T00:23:09;100041.81;;;2.51;82.72
15694;BME280;7947;48.834;9.132;2023-02-14T00:26:12;100042.09;;;2.56;83.47
15694;BME280;7947;48.834;9.132;2023-02-14T00:29:18;100040.56;;;2.62;83.25
15694;BME280;7947;48.834;9.132;2023-02-14T00:32:21;100036.09;;;2.62;82.17
15694;BME280;7947;48.834;9.132;2023-02-14T00:35:24;100039.28;;;2.58;81.80
15694;BME280;7947;48.834;9.132;2023-02-14T00:38:26;100048.38;;;2.33;84.91
15694;BME280;7947;48.834;9.132;2023-02-14T00:41:29;100050.00;;;2.11;86.20
15694;BME280;7947;48.834;9.132;2023-02-14T00:44:34;100037.56;;;1.89;87.28
15694;BME280;7947;48.834;9.132;2023-02-14T00:47:36;100038.84;;;1.93;85.25
15694;BME280;7947;48.834;9.132;2023-02-14T00:50:39;100034.88;;;1.97;86.18
15694;BME280;7947;48.834;9.132;2023-02-14T00:53:44;100036.50;;;1.98;86.08
15694;BME280;7947;48.834;9.132;2023-02-14T00:56:47;100029.28;;;1.84;85.83
15694;BME280;7947;48.834;9.132;2023-02-14T00:59:51;100032.50;;;1.71;86.64
15694;BME280;7947;48.834;9.132;2023-02-14T01:02:54;100042.25;;;1.71;86.38
15694;BME280;7947;48.834;9.132;2023-02-14T01:05:57;100049.34;;;1.70;87.11
15694;BME280;7947;48.834;9.132;2023-02-14T01:09:00;100052.00;;;1.70;87.63
15694;BME280;7947;48.834;9.132;2023-02-14T01:12:03;100045.34;;;1.82;86.33
15694;BME280;7947;48.834;9.132;2023-02-14T01:15:08;100041.06;;;1.81;85.06
15694;BME280;7947;48.834;9.132;2023-02-14T01:18:11;100045.69;;;1.79;85.77
15694;BME280;7947;48.834;9.132;2023-02-14T01:21:17;100044.78;;;1.56;87.06
15694;BME280;7947;48.834;9.132;2023-02-14T01:24:37;100045.78;;;1.47;88.88
15694;BME280;7947;48.834;9.132;2023-02-14T01:27:49;100037.00;;;1.55;87.02
15694;BME280;7947;48.834;9.132;2023-02-14T01:30:53;100044.44;;;1.59;87.72
15694;BME280;7947;48.834;9.132;2023-02-14T01:33:57;100036.84;;;1.56;87.96
15694;BME280;7947;48.834;9.132;2023-02-14T01:37:00;100034.53;;;1.53;88.12
15694;BME280;7947;48.834;9.132;2023-02-14T01:40:03;100032.94;;;1.44;88.47
15694;BME280;7947;48.834;9.132;2023-02-14T01:43:10;100025.06;;;1.67;88.39
15694;BME280;7947;48.834;9.132;2023-02-14T01:46:15;100023.44;;;1.66;87.34
15694;BME280;7947;48.834;9.132;2023-02-14T01:49:21;100030.19;;;1.68;86.93
15694;BME280;7947;48.834;9.132;2023-02-14T01:52:28;100028.81;;;1.80;86.75
15694;BME280;7947;48.834;9.132;2023-02-14T01:55:35;100031.47;;;1.80;86.85
15694;BME280;7947;48.834;9.132;2023-02-14T01:58:40;100028.97;;;1.87;86.19
15694;BME280;7947;48.834;9.132;2023-02-14T02:01:48;100031.09;;;1.92;84.49
15694;BME280;7947;48.834;9.132;2023-02-14T02:04:54;100031.56;;;1.95;83.71
15694;BME280;7947;48.834;9.132;2023-02-14T02:07:59;100032.91;;;1.91;84.03
15694;BME280;7947;48.834;9.132;2023-02-14T02:11:02;100030.81;;;1.78;85.03
15694;BME280;7947;48.834;9.132;2023-02-14T02:14:10;100033.34;;;1.64;86.47
15694;BME280;7947;48.834;9.132;2023-02-14T02:17:23;100041.34;;;1.48;87.85
15694;BME280;7947;48.834;9.132;2023-02-14T02:20:52;100030.72;;;1.64;88.41
15694;BME280;7947;48.834;9.132;2023-02-14T02:24:12;100032.00;;;1.76;84.65
15694;BME280;7947;48.834;9.132;2023-02-14T02:27:26;100029.66;;;1.81;83.63
15694;BME280;7947;48.834;9.132;2023-02-14T02:31:10;100033.16;;;1.73;81.73
15694;BME280;7947;48.834;9.132;2023-02-14T02:35:03;100030.16;;;1.76;81.40
15694;BME280;7947;48.834;9.132;2023-02-14T02:38:22;100027.22;;;1.71;82.18
15694;BME280;7947;48.834;9.132;2023-02-14T02:41:36;100024.28;;;1.66;80.60
15694;BME280;7947;48.834;9.132;2023-02-14T02:44:50;100025.59;;;1.62;79.90
15694;BME280;7947;48.834;9.132;2023-02-14T02:48:04;100020.66;;;1.51;79.45
15694;BME280;7947;48.834;9.132;2023-02-14T02:51:13;100020.00;;;1.49;78.95
15694;BME280;7947;48.834;9.132;2023-02-14T02:54:41;100032.28;;;1.42;78.14
15694;BME280;7947;48.834;9.132;2023-02-14T02:57:45;100031.97;;;1.37;79.47
15694;BME280;7947;48.834;9.132;2023-02-14T03:00:52;100030.31;;;1.36;82.38
15694;BME280;7947;48.834;9.132;2023-02-14T03:03:58;100021.53;;;1.36;82.62
15694;BME280;7947;48.834;9.132;2023-02-14T03:07:29;100021.03;;;1.40;82.14
15694;BME280;7947;48.834;9.132;2023-02-14T03:10:39;100025.00;;;1.36;81.02
15694;BME280;7947;48.834;9.132;2023-02-14T03:13:57;100026.34;;;1.32;80.06
15694;BME280;7947;48.834;9.132;2023-02-14T03:17:05;100031.13;;;1.37;80.04
15694;BME280;7947;48.834;9.132;2023-02-14T03:20:32;100026.53;;;1.31;78.93
15694;BME280;7947;48.834;9.132;2023-02-14T03:23:39;100033.13;;;1.27;79.30
15694;BME280;7947;48.834;9.132;2023-02-14T03:26:47;100026.03;;;1.27;81.77
15694;BME280;7947;48.834;9.132;2023-02-14T03:29:55;100032.63;;;1.31;83.27
15694;BME280;7947;48.834;9.132;2023-02-14T03:33:02;100036.59;;;1.35;82.44
15694;BME280;7947;48.834;9.132;2023-02-14T03:36:10;100035.94;;;1.25;82.23
15694;BME280;7947;48.834;9.132;2023-02-14T03:39:20;100036.78;;;1.26;83.13
15694;BME280;7947;48.834;9.132;2023-02-14T03:42:28;100032.97;;;1.28;82.98
15694;BME280;7947;48.834;9.132;2023-02-14T03:45:37;100033.31;;;1.25;82.37
15694;BME280;7947;48.834;9.132;2023-02-14T03:48:42;100027.53;;;1.22;82.68
15694;BME280;7947;48.834;9.132;2023-02-14T03:51:49;100021.09;;;1.16;80.90
15694;BME280;7947;48.834;9.132;2023-02-14T03:54:57;100021.78;;;1.02;79.65
15694;BME280;7947;48.834;9.132;2023-02-14T03:58:07;100019.47;;;1.07;79.93
15694;BME280;7947;48.834;9.132;2023-02-14T04:01:15;100017.34;;;1.03;79.32
15694;BME280;7947;48.834;9.132;2023-02-14T04:04:21;100008.09;;;0.90;79.37
15694;BME280;7947;48.834;9.132;2023-02-14T04:07:25;100013.88;;;1.02;79.59
15694;BME280;7947;48.834;9.132;2023-02-14T04:10:30;100023.28;;;0.97;78.36
15694;BME280;7947;48.834;9.132;2023-02-14T04:13:34;100021.44;;;0.97;76.87
15694;BME280;7947;48.834;9.132;2023-02-14T04:16:38;100020.66;;;0.88;77.74
15694;BME280;7947;48.834;9.132;2023-02-14T04:19:55;100016.88;;;0.83;77.00
15694;BME280;7947;48.834;9.132;2023-02-14T04:22:58;100029.06;;;0.76;77.62
15694;BME280;7947;48.834;9.132;2023-02-14T04:26:05;100024.78;;;0.67;78.05
15694;BME280;7947;48.834;9.132;2023-02-14T04:29:08;100019.66;;;0.65;78.08
15694;BME280;7947;48.834;9.132;2023-02-14T04:32:12;100011.41;;;0.60;77.94
15694;BME280;7947;48.834;9.132;2023-02-14T04:35:15;100019.31;;;0.60;77.75
15694;BME280;7947;48.834;9.132;2023-02-14T04:38:18;100015.72;;;0.61;78.55
15694;BME280;7947;48.834;9.132;2023-02-14T04:41:22;100020.81;;;0.63;76.67
15694;BME280;7947;48.834;9.132;2023-02-14T04:44:25;100016.69;;;0.44;78.18
15694;BME280;7947;48.834;9.132;2023-02-14T04:47:28;100007.28;;;0.42;78.27
15694;BME280;7947;48.834;9.132;2023-02-14T04:50:31;100010.41;;;0.37;78.79
15694;BME280;7947;48.834;9.132;2023-02-14T04:53:34;100002.84;;;0.42;78.87
15694;BME280;7947;48.834;9.132;2023-02-14T04:56:41;100012.56;;;0.50;78.10
15694;BME280;7947;48.834;9.132;2023-02-14T04:59:44;100016.84;;;0.43;78.20
15694;BME280;7947;48.834;9.132;2023-02-14T05:02:47;100016.19;;;0.41;78.39
15694;BME280;7947;48.834;9.132;2023-02-14T05:05:49;100019.16;;;0.46;80.90
15694;BME280;7947;48.834;9.132;2023-02-14T05:08:52;100019.47;;;0.43;79.76
15694;BME280;7947;48.834;9.132;2023-02-14T05:11:56;100013.88;;;0.46;77.94
15694;BME280;7947;48.834;9.132;2023-02-14T05:14:59;100005.28;;;0.36;77.17
15694;BME280;7947;48.834;9.132;2023-02-14T05:18:02;100011.56;;;0.43;77.41
15694;BME280;7947;48.834;9.132;2023-02-14T05:21:06;100011.25;;;0.38;77.07
15694;BME280;7947;48.834;9.132;2023-02-14T05:24:09;100004.47;;;0.35;77.16
15694;BME280;7947;48.834;9.132;2023-02-14T05:27:13;100008.41;;;0.31;77.98
15694;BME280;7947;48.834;9.132;2023-02-14T05:30:16;100007.63;;;0.31;76.95
15694;BME280;7947;48.834;9.132;2023-02-14T05:33:19;100018.16;;;0.23;77.39
15694;BME280;7947;48.834;9.132;2023-02-14T05:36:21;100017.97;;;0.24;76.77
15694;BME280;7947;48.834;9.132;2023-02-14T05:39:24;100015.84;;;0.28;76.91
15694;BME280;7947;48.834;9.132;2023-02-14T05:42:28;100012.38;;;0.27;77.04
15694;BME280;7947;48.834;9.132;2023-02-14T05:45:31;100007.09;;;0.19;77.38
15694;BME280;7947;48.834;9.132;2023-02-14T05:48:34;100014.84;;;0.21;76.81
15694;BME280;7947;48.834;9.132;2023-02-14T05:51:36;100019.75;;;0.16;78.40
15694;BME280;7947;48.834;9.132;2023-02-14T05:54:39;100023.88;;;0.10;78.26
15694;BME280;7947;48.834;9.132;2023-02-14T05:57:43;100022.38;;;-0.01;78.96
15694;BME280;7947;48.834;9.132;2023-02-14T06:00:46;100032.94;;;-0.01;78.66
15694;BME280;7947;48.834;9.132;2023-02-14T06:03:49;100026.00;;;-0.02;78.21
15694;BME280;7947;48.834;9.132;2023-02-14T06:06:52;100028.28;;;-0.07;79.56
15694;BME280;7947;48.834;9.132;2023-02-14T06:09:55;100033.09;;;-0.02;80.73
15694;BME280;7947;48.834;9.132;2023-02-14T06:12:59;100033.44;;;0.03;80.45
15694;BME280;7947;48.834;9.132;2023-02-14T06:16:02;100036.25;;;0.02;80.30
15694;BME280;7947;48.834;9.132;2023-02-14T06:19:06;100034.75;;;0.07;80.40
15694;BME280;7947;48.834;9.132;2023-02-14T06:22:10;100038.91;;;0.10;80.96
15694;BME280;7947;48.834;9.132;2023-02-14T06:25:13;100034.94;;;0.06;78.88
15694;BME280;7947;48.834;9.132;2023-02-14T06:28:17;100036.25;;;0.10;77.85
15694;BME280;7947;48.834;9.132;2023-02-14T06:31:23;100039.69;;;0.02;78.19
15694;BME280;7947;48.834;9.132;2023-02-14T06:34:33;100038.53;;;0.05;77.47
15694;BME280;7947;48.834;9.132;2023-02-14T06:37:51;100037.72;;;-0.04;78.55
15694;BME280;7947;48.834;9.132;2023-02-14T06:41:32;100050.69;;;-0.11;79.37
15694;BME280;7947;48.834;9.132;2023-02-14T06:45:11;100047.72;;;-0.08;79.06
15694;BME280;7947;48.834;9.132;2023-02-14T06:48:58;100050.56;;;-0.01;79.53
15694;BME280;7947;48.834;9.132;2023-02-14T06:53:19;100041.88;;;0.15;79.83
15694;BME280;7947;48.834;9.132;2023-02-14T06:57:12;100053.59;;;0.20;79.40
15694;BME280;7947;48.834;9.132;2023-02-14T07:00:41;100036.47;;;0.32;78.71
15694;BME280;7947;48.834;9.132;2023-02-14T07:04:01;100042.06;;;0.37;80.45
15694;BME280;7947;48.834;9.132;2023-02-14T07:07:11;100033.34;;;0.45;79.63
15694;BME280;7947;48.834;9.132;2023-02-14T07:10:35;100030.22;;;0.49;79.51
15694;BME280;7947;48.834;9.132;2023-02-14T07:14:00;100034.34;;;0.60;79.60
15694;BME280;7947;48.834;9.132;2023-02-14T07:17:19;100034.50;;;0.66;80.45
15694;BME280;7947;48.834;9.132;2023-02-14T07:20:34;100029.88;;;0.68;81.77
15694;BME280;7947;48.834;9.132;2023-02-14T07:24:10;100036.81;;;0.85;82.52
15694;BME280;7947;48.834;9.132;2023-02-14T07:27:31;100025.91;;;0.56;82.92
15694;BME280;7947;48.834;9.132;2023-02-14T07:31:09;100027.91;;;0.62;83.49
15694;BME280;7947;48.834;9.132;2023-02-14T07:34:43;100028.09;;;0.77;83.68
15694;BME280;7947;48.834;9.132;2023-02-14T07:38:00;100035.97;;;0.93;83.72
15694;BME280;7947;48.834;9.132;2023-02-14T07:41:14;100027.06;;;0.86;84.88
15694;BME280;7947;48.834;9.132;2023-02-14T07:44:24;100029.06;;;1.00;85.85
15694;BME280;7947;48.834;9.132;2023-02-14T07:48:06;100026.91;;;1.04;86.62
15694;BME280;7947;48.834;9.132;2023-02-14T07:51:49;100025.88;;;1.21;86.52
15694;BME280;7947;48.834;9.132;2023-02-14T07:55:25;100038.88;;;1.38;86.59
15694;BME280;7947;48.834;9.132;2023-02-14T07:58:49;100029.22;;;1.61;86.82
15694;BME280;7947;48.834;9.132;2023-02-14T08:02:15;100030.19;;;1.68;86.64
15694;BME280;7947;48.834;9.132;2023-02-14T08:05:57;100022.91;;;1.70;87.00
15694;BME280;7947;48.834;9.132;2023-02-14T08:09:39;100021.50;;;1.91;86.46
15694;BME280;7947;48.834;9.132;2023-02-14T08:13:40;100023.25;;;2.06;85.92
15694;BME280;7947;48.834;9.132;2023-02-14T08:17:30;100015.25;;;2.14;86.34
15694;BME280;7947;48.834;9.132;2023-02-14T08:20:49;100017.44;;;2.11;86.86
15694;BME280;7947;48.834;9.132;2023-02-14T08:24:14;100010.16;;;2.13;86.62
15694;BME280;7947;48.834;9.132;2023-02-14T08:27:42;100015.38;;;2.21;87.43
15694;BME280;7947;48.834;9.132;2023-02-14T08:31:09;100018.97;;;2.28;87.03
15694;BME280;7947;48.834;9.132;2023-02-14T08:34:38;100015.44;;;2.13;87.99
15694;BME280;7947;48.834;9.132;2023-02-14T08:46:52;100004.81;;;2.43;87.46
15694;BME280;7947;48.834;9.132;2023-02-14T08:50:44;100011.09;;;2.42;87.50
15694;BME280;7947;48.834;9.132;2023-02-14T08:55:14;100008.97;;;2.60;87.66
15694;BME280;7947;48.834;9.132;2023-02-14T09:08:14;100006.44;;;3.04;87.52
15694;BME280;7947;48.834;9.132;2023-02-14T09:12:07;100001.88;;;3.27;87.62
15694;BME280;7947;48.834;9.132;2023-02-14T09:15:45;100006.03;;;3.44;85.72
15694;BME280;7947;48.834;9.132;2023-02-14T09:19:39;99992.00;;;3.65;85.67
15694;BME280;7947;48.834;9.132;2023-02-14T09:23:59;99991.56;;;3.61;84.96
15694;BME280;7947;48.834;9.132;2023-02-14T09:27:54;99987.72;;;3.49;85.53
15694;BME280;7947;48.834;9.132;2023-02-14T09:32:16;99983.31;;;3.56;85.76
15694;BME280;7947;48.834;9.132;2023-02-14T09:36:42;99980.81;;;3.84;84.00
15694;BME280;7947;48.834;9.132;2023-02-14T09:40:55;99981.28;;;4.44;84.59
15694;BME280;7947;48.834;9.132;2023-02-14T09:48:41;99962.06;;;7.51;70.55
15694;BME280;7947;48.834;9.132;2023-02-14T09:52:51;99945.94;;;11.27;55.17
15694;BME280;7947;48.834;9.132;2023-02-14T09:57:02;99934.63;;;13.44;45.57
15694;BME280;7947;48.834;9.132;2023-02-14T10:01:00;99938.69;;;14.11;42.89
15694;BME280;7947;48.834;9.132;2023-02-14T10:05:09;99937.00;;;14.54;41.74
15694;BME280;7947;48.834;9.132;2023-02-14T10:09:23;99925.31;;;14.48;41.54
15694;BME280;7947;48.834;9.132;2023-02-14T10:27:20;99914.81;;;17.04;36.48
15694;BME280;7947;48.834;9.132;2023-02-14T10:31:46;99899.78;;;17.67;35.78
15694;BME280;7947;48.834;9.132;2023-02-14T10:40:35;99899.09;;;18.00;34.55
15694;BME280;7947;48.834;9.132;2023-02-14T10:54:17;99887.34;;;18.53;34.55
15694;BME280;7947;48.834;9.132;2023-02-14T10:57:56;99878.22;;;18.73;33.20
15694;BME280;7947;48.834;9.132;2023-02-14T11:01:47;99871.03;;;18.15;33.49
15694;BME280;7947;48.834;9.132;2023-02-14T11:05:34;99876.72;;;18.90;34.79
15694;BME280;7947;48.834;9.132;2023-02-14T11:27:40;99850.06;;;18.25;35.82
15694;BME280;7947;48.834;9.132;2023-02-14T11:31:43;99833.25;;;18.57;33.30
15694;BME280;7947;48.834;9.132;2023-02-14T11:36:20;99830.38;;;19.01;32.85
15694;BME280;7947;48.834;9.132;2023-02-14T14:53:56;99680.69;;;13.10;49.74
15694;BME280;7947;48.834;9.132;2023-02-14T14:57:54;99686.09;;;12.50;50.79
15694;BME280;7947;48.834;9.132;2023-02-14T15:06:14;99682.69;;;11.39;57.00
15694;BME280;7947;48.834;9.132;2023-02-14T16:25:34;99694.25;;;8.49;68.95
15694;BME280;7947;48.834;9.132;2023-02-14T16:30:00;99686.22;;;8.31;68.69
15694;BME280;7947;48.834;9.132;2023-02-14T16:38:25;99691.44;;;7.76;68.14
15694;BME280;7947;48.834;9.132;2023-02-14T16:55:34;99703.31;;;6.87;71.18
15694;BME280;7947;48.834;9.132;2023-02-14T16:58:57;99703.97;;;6.76;70.91
15694;BME280;7947;48.834;9.132;2023-02-14T17:02:45;99699.28;;;6.65;71.18
15694;BME280;7947;48.834;9.132;2023-02-14T17:06:42;99699.91;;;6.60;70.59
15694;BME280;7947;48.834;9.132;2023-02-14T17:09:53;99706.13;;;6.41;71.64
15694;BME280;7947;48.834;9.132;2023-02-14T17:13:05;99717.84;;;6.40;71.81
15694;BME280;7947;48.834;9.132;2023-02-14T17:16:18;99712.13;;;6.23;71.58
15694;BME280;7947;48.834;9.132;2023-02-14T17:19:32;99713.56;;;6.06;72.47
15694;BME280;7947;48.834;9.132;2023-02-14T17:22:41;99711.53;;;6.15;72.84
15694;BME280;7947;48.834;9.132;2023-02-14T17:25:50;99716.25;;;6.06;72.76
15694;BME280;7947;48.834;9.132;2023-02-14T17:29:07;99713.56;;;6.06;71.18
15694;BME280;7947;48.834;9.132;2023-02-14T17:32:22;99710.50;;;6.03;72.30
15694;BME280;7947;48.834;9.132;2023-02-14T17:35:37;99716.88;;;5.95;71.12
15694;BME280;7947;48.834;9.132;2023-02-14T17:38:50;99722.81;;;5.84;72.51
15694;BME280;7947;48.834;9.132;2023-02-14T17:41:58;99715.22;;;5.75;71.20
15694;BME280;7947;48.834;9.132;2023-02-14T17:45:19;99721.94;;;5.58;71.27
15694;BME280;7947;48.834;9.132;2023-02-14T17:48:30;99725.81;;;5.42;73.26
15694;BME280;7947;48.834;9.132;2023-02-14T17:51:41;99723.97;;;5.29;73.16
15694;BME280;7947;48.834;9.132;2023-02-14T17:54:57;99725.97;;;5.21;72.92
15694;BME280;7947;48.834;9.132;2023-02-14T17:58:12;99722.28;;;5.09;73.91
15694;BME280;7947;48.834;9.132;2023-02-14T18:01:22;99722.44;;;4.94;74.09
15694;BME280;7947;48.834;9.132;2023-02-14T18:04:35;99736.50;;;4.88;74.19
15694;BME280;7947;48.834;9.132;2023-02-14T18:07:56;99735.88;;;4.80;74.83
15694;BME280;7947;48.834;9.132;2023-02-14T18:11:19;99729.06;;;4.71;74.03
15694;BME280;7947;48.834;9.132;2023-02-14T18:14:30;99723.94;;;4.63;74.64
15694;BME280;7947;48.834;9.132;2023-02-14T18:17:52;99729.22;;;4.56;74.97
15694;BME280;7947;48.834;9.132;2023-02-14T18:21:06;99725.88;;;4.41;75.50
15694;BME280;7947;48.834;9.132;2023-02-14T18:24:17;99720.94;;;4.38;76.13
15694;BME280;7947;48.834;9.132;2023-02-14T18:27:49;99726.03;;;4.33;76.54
15694;BME280;7947;48.834;9.132;2023-02-14T18:31:13;99717.66;;;4.29;75.32
15694;BME280;7947;48.834;9.132;2023-02-14T18:34:30;99719.03;;;4.25;74.76
15694;BME280;7947;48.834;9.132;2023-02-14T18:38:01;99721.03;;;4.17;75.72
15694;BME280;7947;48.834;9.132;2023-02-14T18:41:12;99709.16;;;4.13;76.47
15694;BME280;7947;48.834;9.132;2023-02-14T18:44:20;99708.31;;;4.06;77.17
15694;BME280;7947;48.834;9.132;2023-02-14T18:47:31;99706.00;;;4.03;77.49
15694;BME280;7947;48.834;9.132;2023-02-14T18:50:47;99705.38;;;4.01;76.32
15694;BME280;7947;48.834;9.132;2023-02-14T18:53:55;99704.78;;;3.99;77.26
15694;BME280;7947;48.834;9.132;2023-02-14T18:57:04;99696.97;;;3.91;78.41
15694;BME280;7947;48.834;9.132;2023-02-14T19:00:15;99701.25;;;3.92;77.37
15694;BME280;7947;48.834;9.132;2023-02-14T19:03:25;99704.09;;;3.90;76.06
15694;BME280;7947;48.834;9.132;2023-02-14T19:06:34;99701.81;;;3.87;76.48
15694;BME280;7947;48.834;9.132;2023-02-14T19:09:38;99697.47;;;3.80;77.57
15694;BME280;7947;48.834;9.132;2023-02-14T19:12:41;99692.22;;;3.86;76.16
15694;BME280;7947;48.834;9.132;2023-02-14T19:15:44;99689.72;;;3.78;76.24
15694;BME280;7947;48.834;9.132;2023-02-14T19:18:48;99692.00;;;3.81;76.50
15694;BME280;7947;48.834;9.132;2023-02-14T19:21:56;99686.00;;;3.73;78.31
15694;BME280;7947;48.834;9.132;2023-02-14T19:24:59;99682.31;;;3.67;76.17
15694;BME280;7947;48.834;9.132;2023-02-14T19:28:02;99692.94;;;3.74;76.43
15694;BME280;7947;48.834;9.132;2023-02-14T19:31:05;99688.66;;;3.73;75.77
15694;BME280;7947;48.834;9.132;2023-02-14T19:34:15;99686.34;;;3.63;76.96
15694;BME280;7947;48.834;9.132;2023-02-14T19:37:20;99677.13;;;3.59;78.15
15694;BME280;7947;48.834;9.132;2023-02-14T19:40:22;99674.03;;;3.55;77.15
15694;BME280;7947;48.834;9.132;2023-02-14T19:43:25;99666.44;;;3.46;78.73
15694;BME280;7947;48.834;9.132;2023-02-14T19:46:29;99673.34;;;3.47;77.78
15694;BME280;7947;48.834;9.132;2023-02-14T19:49:32;99664.84;;;3.51;76.06
15694;BME280;7947;48.834;9.132;2023-02-14T19:52:36;99665.19;;;3.48;75.91
15694;BME280;7947;48.834;9.132;2023-02-14T19:55:40;99665.72;;;3.37;75.61
15694;BME280;7947;48.834;9.132;2023-02-14T19:58:43;99668.69;;;3.28;77.15
15694;BME280;7947;48.834;9.132;2023-02-14T20:01:47;99662.13;;;3.24;78.05
15694;BME280;7947;48.834;9.132;2023-02-14T20:04:51;99663.19;;;3.29;76.42
15694;BME280;7947;48.834;9.132;2023-02-14T20:08:00;99665.84;;;3.29;77.22
15694;BME280;7947;48.834;9.132;2023-02-14T20:11:03;99663.53;;;3.20;77.57
15694;BME280;7947;48.834;9.132;2023-02-14T20:14:07;99661.31;;;3.23;78.07
15694;BME280;7947;48.834;9.132;2023-02-14T20:17:10;99657.66;;;3.24;77.06
15694;BME280;7947;48.834;9.132;2023-02-14T20:20:15;99652.75;;;3.21;77.70
15694;BME280;7947;48.834;9.132;2023-02-14T20:23:19;99653.56;;;3.22;77.15
15694;BME280;7947;48.834;9.132;2023-02-14T20:26:23;99650.88;;;3.15;77.41
15694;BME280;7947;48.834;9.132;2023-02-14T20:29:26;99650.88;;;3.15;76.20
15694;BME280;7947;48.834;9.132;2023-02-14T20:32:28;99647.13;;;3.10;77.45
15694;BME280;7947;48.834;9.132;2023-02-14T20:35:32;99635.66;;;3.03;77.01
15694;BME280;7947;48.834;9.132;2023-02-14T20:38:39;99630.84;;;2.92;77.58
15694;BME280;7947;48.834;9.132;2023-02-14T20:41:42;99633.50;;;2.92;79.05
15694;BME280;7947;48.834;9.132;2023-02-14T20:44:50;99622.41;;;2.82;78.58
15694;BME280;7947;48.834;9.132;2023-02-14T20:47:52;99625.25;;;2.80;78.75
15694;BME280;7947;48.834;9.132;2023-02-14T20:50:56;99613.28;;;2.69;78.33
15694;BME280;7947;48.834;9.132;2023-02-14T20:54:01;99624.06;;;2.83;77.54
15694;BME280;7947;48.834;9.132;2023-02-14T20:57:04;99615.72;;;2.86;77.30
15694;BME280;7947;48.834;9.132;2023-02-14T21:00:08;99617.09;;;2.82;77.66
15694;BME280;7947;48.834;9.132;2023-02-14T21:03:11;99613.06;;;2.86;77.69
15694;BME280;7947;48.834;9.132;2023-02-14T21:06:14;99607.66;;;2.94;75.40
15694;BME280;7947;48.834;9.132;2023-02-14T21:09:18;99604.28;;;2.85;77.76
15694;BME280;7947;48.834;9.132;2023-02-14T21:12:21;99603.22;;;2.80;76.21
15694;BME280;7947;48.834;9.132;2023-02-14T21:15:24;99607.81;;;2.71;77.61
15694;BME280;7947;48.834;9.132;2023-02-14T21:18:28;99598.47;;;2.75;77.25
15694;BME280;7947;48.834;9.132;2023-02-14T21:21:32;99601.63;;;2.64;77.14
15694;BME280;7947;48.834;9.132;2023-02-14T21:24:38;99607.47;;;2.59;78.73
15694;BME280;7947;48.834;9.132;2023-02-14T21:27:42;99596.34;;;2.64;77.88
15694;BME280;7947;48.834;9.132;2023-02-14T21:30:44;99601.50;;;2.72;77.65
15694;BME280;7947;48.834;9.132;2023-02-14T21:33:48;99603.22;;;2.58;78.80
15694;BME280;7947;48.834;9.132;2023-02-14T21:36:51;99596.09;;;2.59;76.71
15694;BME280;7947;48.834;9.132;2023-02-14T21:39:57;99594.63;;;2.56;77.48
15694;BME280;7947;48.834;9.132;2023-02-14T21:43:00;99591.91;;;2.50;76.27
15694;BME280;7947;48.834;9.132;2023-02-14T21:46:04;99585.97;;;2.48;77.61
15694;BME280;7947;48.834;9.132;2023-02-14T21:49:10;99599.41;;;2.46;77.91
15694;BME280;7947;48.834;9.132;2023-02-14T21:52:31;99590.81;;;2.44;77.55
15694;BME280;7947;48.834;9.132;2023-02-14T21:55:35;99586.47;;;2.37;76.97
15694;BME280;7947;48.834;9.132;2023-02-14T21:58:39;99584.00;;;2.35;78.02
15694;BME280;7947;48.834;9.132;2023-02-14T22:01:42;99580.47;;;2.28;79.20
15694;BME280;7947;48.834;9.132;2023-02-14T22:04:45;99578.00;;;2.27;77.91
15694;BME280;7947;48.834;9.132;2023-02-14T22:07:49;99575.97;;;2.29;78.74
15694;BME280;7947;48.834;9.132;2023-02-14T22:10:53;99586.69;;;2.21;78.82
15694;BME280;7947;48.834;9.132;2023-02-14T22:13:56;99579.66;;;2.13;78.92
15694;BME280;7947;48.834;9.132;2023-02-14T22:16:58;99580.31;;;2.15;78.99
15694;BME280;7947;48.834;9.132;2023-02-14T22:20:02;99580.59;;;2.20;77.52
15694;BME280;7947;48.834;9.132;2023-02-14T22:23:06;99583.78;;;2.16;77.06
15694;BME280;7947;48.834;9.132;2023-02-14T22:26:12;99573.81;;;2.18;76.30
15694;BME280;7947;48.834;9.132;2023-02-14T22:29:16;99571.28;;;2.10;77.25
15694;BME280;7947;48.834;9.132;2023-02-14T22:32:19;99566.19;;;2.08;78.15
15694;BME280;7947;48.834;9.132;2023-02-14T22:35:21;99565.44;;;2.14;77.42
15694;BME280;7947;48.834;9.132;2023-02-14T22:38:24;99557.94;;;2.18;77.13
15694;BME280;7947;48.834;9.132;2023-02-14T22:41:29;99569.09;;;2.13;76.81
15694;BME280;7947;48.834;9.132;2023-02-14T22:44:32;99570.19;;;2.04;76.58
15694;BME280;7947;48.834;9.132;2023-02-14T22:47:34;99565.75;;;2.05;76.70
15694;BME280;7947;48.834;9.132;2023-02-14T22:50:37;99560.44;;;2.05;75.91
15694;BME280;7947;48.834;9.132;2023-02-14T22:53:40;99558.63;;;2.05;77.37
15694;BME280;7947;48.834;9.132;2023-02-14T22:56:45;99555.91;;;1.99;74.23
15694;BME280;7947;48.834;9.132;2023-02-14T22:59:48;99563.47;;;1.87;75.75
15694;BME280;7947;48.834;9.132;2023-02-14T23:02:51;99557.47;;;1.78;76.96
15694;BME280;7947;48.834;9.132;2023-02-14T23:05:54;99568.22;;;1.77;80.31
15694;BME280;7947;48.834;9.132;2023-02-14T23:08:59;99562.94;;;1.77;82.17
15694;BME280;7947;48.834;9.132;2023-02-14T23:12:04;99558.38;;;1.86;79.89
15694;BME280;7947;48.834;9.132;2023-02-14T23:15:27;99557.56;;;1.85;78.71
15694;BME280;7947;48.834;9.132;2023-02-14T23:18:48;99551.00;;;1.81;78.59
15694;BME280;7947;48.834;9.132;2023-02-14T23:22:10;99547.59;;;1.72;77.38
15694;BME280;7947;48.834;9.132;2023-02-14T23:25:13;99562.31;;;1.60;78.85
15694;BME280;7947;48.834;9.132;2023-02-14T23:28:17;99544.78;;;1.59;78.47
15694;BME280;7947;48.834;9.132;2023-02-14T23:31:20;99552.53;;;1.61;78.18
15694;BME280;7947;48.834;9.132;2023-02-14T23:34:23;99550.53;;;1.63;78.85
15694;BME280;7947;48.834;9.132;2023-02-14T23:37:27;99550.88;;;1.74;82.16